Time,TemperatureF,DewpointF,PressureIn,WindDirection,WindDirectionDegrees,WindSpeedMPH,WindSpeedGustMPH,Humidity,HourlyPrecipIn,Conditions,Clouds,dailyrainin,SoftwareType,DateUTC
2013-02-14 00:02:00,28.8,28.0,29.69,South,182,0.0,0.0,97,0.00,,,0.00,HR-IXPWINDi_r2_v1.2.,2013-02-14 06:02:00,
2013-02-14 00:07:00,28.8,28.0,29.69,South,182,0.0,0.0,97,0.00,,,0.00,HR-IXPWINDi_r2_v1.2.,2013-02-14 06:07:00,
2013-02-14 00:12:00,28.8,28.0,29.69,South,182,0.0,0.0,97,0.00,,,0.00,HR-IXPWINDi_r2_v1.2.,2013-02-14 06:12:00,
2013-02-14 00:17:00,28.9,28.1,29.69,South,182,0.0,0.0,97,0.00,,,0.00,HR-IXPWINDi_r2_v1.2.,2013-02-14 06:17:00,
2013-02-14 00:22:00,28.9,28.1,29.69,South,182,0.0,0.0,97,0.00,,,0.00,HR-IXPWINDi_r2_v1.2.,2013-02-14 06:22:00,
2013-02-14 00:27:00,28.8,28.0,29.69,South,182,0.0,0.0,97,0.00,,,0.00,HR-IXPWINDi_r2_v1.2.,2013-02-14 06:27:00,
2013-02-14 00:32:00,28.8,28.0,29.69,South,182,0.0,0.0,97,0.00,,,0.00,HR-IXPWINDi_r2_v1.2.,2013-02-14 06:32:00,
2013-02-14 00:37:00,28.7,27.9,29.69,South,182,0.0,0.0,97,0.00,,,0.00,HR-IXPWINDi_r2_v1.2.,2013-02-14 06:37:00,
2013-02-14 00:43:00,28.7,27.9,29.69,South,182,0.0,0.0,97,0.00,,,0.00,HR-IXPWINDi_r2_v1.2.,2013-02-14 06:43:00,
2013-02-14 00:48:00,28.6,27.8,29.69,South,182,0.0,0.0,97,0.00,,,0.00,HR-IXPWINDi_r2_v1.2.,2013-02-14 06:48:00,
2013-02-14 00:53:00,28.6,27.8,29.68,South,182,0.0,0.0,97,0.00,,,0.00,HR-IXPWINDi_r2_v1.2.,2013-02-14 06:53:00,
2013-02-14 00:59:00,28.6,27.8,29.68,South,182,0.0,0.0,97,0.00,,,0.00,HR-IXPWINDi_r2_v1.2.,2013-02-14 06:59:00,
2013-02-14 01:04:00,28.7,27.9,29.68,South,182,0.0,0.0,97,0.00,,,0.00,HR-IXPWINDi_r2_v1.2.,2013-02-14 07:04:00,
2013-02-14 01:09:00,28.9,28.1,29.68,South,182,0.0,0.0,97,0.00,,,0.00,HR-IXPWINDi_r2_v1.2.,2013-02-14 07:09:00,
2013-02-14 01:14:00,28.8,28.0,29.68,South,182,0.0,0.0,97,0.00,,,0.00,HR-IXPWINDi_r2_v1.2.,2013-02-14 07:14:00,
2013-02-14 01:19:00,28.7,27.9,29.68,South,182,0.0,0.0,97,0.00,,,0.00,HR-IXPWINDi_r2_v1.2.,2013-02-14 07:19:00,
2013-02-14 01:24:00,28.7,27.9,29.68,South,182,0.0,0.0,97,0.00,,,0.00,HR-IXPWINDi_r2_v1.2.,2013-02-14 07:24:00,
2013-02-14 01:30:00,28.7,27.9,29.68,South,183,0.0,0.0,97,0.00,,,0.00,HR-IXPWINDi_r2_v1.2.,2013-02-14 07:30:00,
2013-02-14 01:35:00,28.7,27.9,29.68,South,182,0.0,0.0,97,0.00,,,0.00,HR-IXPWINDi_r2_v1.2.,2013-02-14 07:35:00,
2013-02-14 01:40:00,28.6,27.8,29.68,South,182,0.0,0.0,97,0.00,,,0.00,HR-IXPWINDi_r2_v1.2.,2013-02-14 07:40:00,
2013-02-14 01:45:00,28.6,27.8,29.68,South,182,0.0,0.0,97,0.00,,,0.00,HR-IXPWINDi_r2_v1.2.,2013-02-14 07:45:00,
2013-02-14 01:51:00,28.5,27.7,29.68,South,182,0.0,0.0,97,0.00,,,0.00,HR-IXPWINDi_r2_v1.2.,2013-02-14 07:51:00,
2013-02-14 01:56:00,28.5,27.7,29.68,South,182,0.0,0.0,97,0.00,,,0.00,HR-IXPWINDi_r2_v1.2.,2013-02-14 07:56:00,
2013-02-14 02:01:00,28.4,27.6,29.68,South,182,0.0,1.0,97,0.00,,,0.00,HR-IXPWINDi_r2_v1.2.,2013-02-14 08:01:00,
2013-02-14 02:06:00,28.4,27.6,29.68,South,182,0.0,1.0,97,0.00,,,0.00,HR-IXPWINDi_r2_v1.2.,2013-02-14 08:06:00,
2013-02-14 02:11:00,28.3,27.5,29.68,South,182,0.0,1.0,97,0.00,,,0.00,HR-IXPWINDi_r2_v1.2.,2013-02-14 08:11:00,
2013-02-14 02:17:00,28.2,27.4,29.68,South,182,0.0,1.0,97,0.00,,,0.00,HR-IXPWINDi_r2_v1.2.,2013-02-14 08:17:00,
2013-02-14 02:22:00,28.1,27.3,29.68,South,182,0.0,0.0,97,0.00,,,0.00,HR-IXPWINDi_r2_v1.2.,2013-02-14 08:22:00,
2013-02-14 02:27:00,28.0,27.2,29.68,South,182,0.0,0.0,97,0.00,,,0.00,HR-IXPWINDi_r2_v1.2.,2013-02-14 08:27:00,
2013-02-14 02:32:00,27.9,27.1,29.68,South,182,0.0,0.0,97,0.00,,,0.00,HR-IXPWINDi_r2_v1.2.,2013-02-14 08:32:00,
2013-02-14 02:37:00,27.9,27.1,29.67,South,182,0.0,0.0,97,0.00,,,0.00,HR-IXPWINDi_r2_v1.2.,2013-02-14 08:37:00,
2013-02-14 02:42:00,27.8,27.0,29.67,South,182,0.0,0.0,97,0.00,,,0.00,HR-IXPWINDi_r2_v1.2.,2013-02-14 08:42:00,
2013-02-14 02:47:00,27.7,26.9,29.67,South,182,0.0,0.0,97,0.00,,,0.00,HR-IXPWINDi_r2_v1.2.,2013-02-14 08:47:00,
2013-02-14 02:53:00,27.6,26.8,29.67,SSE,147,0.0,1.0,97,0.00,,,0.00,HR-IXPWINDi_r2_v1.2.,2013-02-14 08:53:00,
2013-02-14 02:58:00,27.6,26.6,29.67,SSE,148,0.0,1.0,96,0.00,,,0.00,HR-IXPWINDi_r2_v1.2.,2013-02-14 08:58:00,
2013-02-14 03:03:00,27.5,26.5,29.67,SSE,147,0.0,1.0,96,0.00,,,0.00,HR-IXPWINDi_r2_v1.2.,2013-02-14 09:03:00,
2013-02-14 03:08:00,27.4,26.6,29.67,SSE,147,0.0,1.0,97,0.00,,,0.00,HR-IXPWINDi_r2_v1.2.,2013-02-14 09:08:00,
2013-02-14 03:13:00,27.3,26.3,29.67,SSE,147,0.0,0.0,96,0.00,,,0.00,HR-IXPWINDi_r2_v1.2.,2013-02-14 09:13:00,
2013-02-14 03:18:00,27.2,26.2,29.67,SSE,147,1.0,1.0,96,0.00,,,0.00,HR-IXPWINDi_r2_v1.2.,2013-02-14 09:18:00,
2013-02-14 03:23:00,27.1,26.1,29.67,West,272,0.0,2.0,96,0.00,,,0.00,HR-IXPWINDi_r2_v1.2.,2013-02-14 09:23:00,
2013-02-14 03:29:00,27.1,26.1,29.67,West,272,0.0,2.0,96,0.00,,,0.00,HR-IXPWINDi_r2_v1.2.,2013-02-14 09:29:00,
2013-02-14 03:34:00,27.0,26.0,29.67,West,272,0.0,0.0,96,0.00,,,0.00,HR-IXPWINDi_r2_v1.2.,2013-02-14 09:34:00,
2013-02-14 03:39:00,27.0,26.2,29.67,West,272,0.0,0.0,97,0.00,,,0.00,HR-IXPWINDi_r2_v1.2.,2013-02-14 09:39:00,
2013-02-14 03:44:00,27.0,26.0,29.67,West,273,0.0,1.0,96,0.00,,,0.00,HR-IXPWINDi_r2_v1.2.,2013-02-14 09:44:00,
2013-02-14 03:49:00,27.0,26.0,29.67,NNW,329,0.0,1.0,96,0.00,,,0.00,HR-IXPWINDi_r2_v1.2.,2013-02-14 09:49:00,
2013-02-14 03:55:00,26.9,25.9,29.67,NE,47,0.0,1.0,96,0.00,,,0.00,HR-IXPWINDi_r2_v1.2.,2013-02-14 09:55:00,
2013-02-14 04:00:00,26.8,25.8,29.67,NE,47,0.0,1.0,96,0.00,,,0.00,HR-IXPWINDi_r2_v1.2.,2013-02-14 10:00:00,
2013-02-14 04:05:00,26.8,25.8,29.67,NE,47,0.0,0.0,96,0.00,,,0.00,HR-IXPWINDi_r2_v1.2.,2013-02-14 10:05:00,
2013-02-14 04:10:00,26.8,25.8,29.67,NE,47,0.0,1.0,96,0.00,,,0.00,HR-IXPWINDi_r2_v1.2.,2013-02-14 10:10:00,
2013-02-14 04:15:00,26.7,25.7,29.67,NE,47,0.0,1.0,96,0.00,,,0.00,HR-IXPWINDi_r2_v1.2.,2013-02-14 10:15:00,
2013-02-14 04:20:00,26.6,25.6,29.67,NE,47,0.0,1.0,96,0.00,,,0.00,HR-IXPWINDi_r2_v1.2.,2013-02-14 10:20:00,
2013-02-14 04:26:00,26.5,25.5,29.67,NE,47,0.0,1.0,96,0.00,,,0.00,HR-IXPWINDi_r2_v1.2.,2013-02-14 10:26:00,
2013-02-14 04:31:00,26.4,25.4,29.67,NE,47,0.0,1.0,96,0.00,,,0.00,HR-IXPWINDi_r2_v1.2.,2013-02-14 10:31:00,
2013-02-14 04:36:00,26.3,25.3,29.68,NE,47,0.0,1.0,96,0.00,,,0.00,HR-IXPWINDi_r2_v1.2.,2013-02-14 10:36:00,
2013-02-14 04:41:00,26.2,25.2,29.68,NE,47,0.0,1.0,96,0.00,,,0.00,HR-IXPWINDi_r2_v1.2.,2013-02-14 10:41:00,
2013-02-14 04:46:00,26.1,24.9,29.68,NE,47,0.0,1.0,95,0.00,,,0.00,HR-IXPWINDi_r2_v1.2.,2013-02-14 10:46:00,
2013-02-14 04:52:00,26.1,25.1,29.68,NE,47,0.0,1.0,96,0.00,,,0.00,HR-IXPWINDi_r2_v1.2.,2013-02-14 10:52:00,
2013-02-14 04:57:00,26.0,25.0,29.68,NE,47,0.0,0.0,96,0.00,,,0.00,HR-IXPWINDi_r2_v1.2.,2013-02-14 10:57:00,
2013-02-14 05:02:00,26.0,25.0,29.68,NE,47,0.0,0.0,96,0.00,,,0.00,HR-IXPWINDi_r2_v1.2.,2013-02-14 11:02:00,
2013-02-14 05:07:00,26.0,25.0,29.68,NE,47,0.0,0.0,96,0.00,,,0.00,HR-IXPWINDi_r2_v1.2.,2013-02-14 11:07:00,
2013-02-14 05:12:00,26.0,25.0,29.69,NE,47,0.0,0.0,96,0.00,,,0.00,HR-IXPWINDi_r2_v1.2.,2013-02-14 11:12:00,
2013-02-14 05:17:00,25.9,24.9,29.69,NE,47,0.0,1.0,96,0.00,,,0.00,HR-IXPWINDi_r2_v1.2.,2013-02-14 11:17:00,
2013-02-14 05:22:00,25.9,24.9,29.69,NE,47,0.0,1.0,96,0.00,,,0.00,HR-IXPWINDi_r2_v1.2.,2013-02-14 11:22:00,
2013-02-14 05:28:00,25.9,24.9,29.69,NE,46,1.0,1.0,96,0.00,,,0.00,HR-IXPWINDi_r2_v1.2.,2013-02-14 11:28:00,
2013-02-14 05:33:00,25.9,24.9,29.69,NE,47,0.0,1.0,96,0.00,,,0.00,HR-IXPWINDi_r2_v1.2.,2013-02-14 11:33:00,
2013-02-14 05:38:00,25.8,24.8,29.69,NE,47,0.0,2.0,96,0.00,,,0.00,HR-IXPWINDi_r2_v1.2.,2013-02-14 11:38:00,
2013-02-14 05:43:00,25.7,24.5,29.69,NE,47,0.0,2.0,95,0.00,,,0.00,HR-IXPWINDi_r2_v1.2.,2013-02-14 11:43:00,
2013-02-14 05:49:00,25.5,24.3,29.69,NE,54,0.0,1.0,95,0.00,,,0.00,HR-IXPWINDi_r2_v1.2.,2013-02-14 11:49:00,
2013-02-14 05:54:00,25.4,24.2,29.70,NE,54,0.0,1.0,95,0.00,,,0.00,HR-IXPWINDi_r2_v1.2.,2013-02-14 11:54:00,
2013-02-14 05:59:00,25.3,24.1,29.70,NE,54,0.0,1.0,95,0.00,,,0.00,HR-IXPWINDi_r2_v1.2.,2013-02-14 11:59:00,
2013-02-14 06:04:00,25.2,24.0,29.70,NE,54,0.0,1.0,95,0.00,,,0.00,HR-IXPWINDi_r2_v1.2.,2013-02-14 12:04:00,
2013-02-14 06:09:00,25.1,23.9,29.70,ESE,123,0.0,4.0,95,0.00,,,0.00,HR-IXPWINDi_r2_v1.2.,2013-02-14 12:09:00,
2013-02-14 06:14:00,25.0,23.8,29.70,ESE,123,0.0,4.0,95,0.00,,,0.00,HR-IXPWINDi_r2_v1.2.,2013-02-14 12:14:00,
2013-02-14 06:19:00,25.0,23.8,29.70,ESE,123,0.0,0.0,95,0.00,,,0.00,HR-IXPWINDi_r2_v1.2.,2013-02-14 12:19:00,
2013-02-14 06:24:00,24.9,23.7,29.70,SE,124,0.0,1.0,95,0.00,,,0.00,HR-IXPWINDi_r2_v1.2.,2013-02-14 12:24:00,
2013-02-14 06:30:00,24.9,23.7,29.71,SE,124,0.0,1.0,95,0.00,,,0.00,HR-IXPWINDi_r2_v1.2.,2013-02-14 12:30:00,
2013-02-14 06:35:00,24.9,23.7,29.71,SE,124,0.0,0.0,95,0.00,,,0.00,HR-IXPWINDi_r2_v1.2.,2013-02-14 12:35:00,
2013-02-14 06:40:00,24.8,23.6,29.71,SE,124,0.0,0.0,95,0.00,,,0.00,HR-IXPWINDi_r2_v1.2.,2013-02-14 12:40:00,
2013-02-14 06:45:00,24.8,23.6,29.71,SE,124,0.0,0.0,95,0.00,,,0.00,HR-IXPWINDi_r2_v1.2.,2013-02-14 12:45:00,
2013-02-14 06:51:00,24.7,23.5,29.71,SE,125,0.0,0.0,95,0.00,,,0.00,HR-IXPWINDi_r2_v1.2.,2013-02-14 12:51:00,
2013-02-14 06:56:00,24.7,23.5,29.71,SE,124,0.0,0.0,95,0.00,,,0.00,HR-IXPWINDi_r2_v1.2.,2013-02-14 12:56:00,
2013-02-14 07:01:00,24.7,23.7,29.72,SE,124,0.0,0.0,96,0.00,,,0.00,HR-IXPWINDi_r2_v1.2.,2013-02-14 13:01:00,
2013-02-14 07:06:00,24.7,23.7,29.72,SE,125,0.0,0.0,96,0.00,,,0.00,HR-IXPWINDi_r2_v1.2.,2013-02-14 13:06:00,
2013-02-14 07:11:00,24.7,23.5,29.72,SE,124,0.0,0.0,95,0.00,,,0.00,HR-IXPWINDi_r2_v1.2.,2013-02-14 13:11:00,
2013-02-14 07:16:00,24.7,23.7,29.72,SE,124,0.0,0.0,96,0.00,,,0.00,HR-IXPWINDi_r2_v1.2.,2013-02-14 13:16:00,
2013-02-14 07:22:00,24.7,23.5,29.72,SE,124,0.0,0.0,95,0.00,,,0.00,HR-IXPWINDi_r2_v1.2.,2013-02-14 13:22:00,
2013-02-14 07:27:00,24.7,23.7,29.72,SSW,201,0.0,2.0,96,0.00,,,0.00,HR-IXPWINDi_r2_v1.2.,2013-02-14 13:27:00,
2013-02-14 07:32:00,24.7,23.7,29.72,SSW,201,0.0,2.0,96,0.00,,,0.00,HR-IXPWINDi_r2_v1.2.,2013-02-14 13:32:00,
2013-02-14 07:37:00,24.7,23.7,29.72,WSW,248,0.0,1.0,96,0.00,,,0.00,HR-IXPWINDi_r2_v1.2.,2013-02-14 13:37:00,
2013-02-14 07:42:00,24.7,23.7,29.72,WSW,248,0.0,1.0,96,0.00,,,0.00,HR-IXPWINDi_r2_v1.2.,2013-02-14 13:42:00,
2013-02-14 07:48:00,24.7,23.5,29.73,WSW,248,0.0,0.0,95,0.00,,,0.00,HR-IXPWINDi_r2_v1.2.,2013-02-14 13:48:00,
2013-02-14 07:53:00,24.8,23.8,29.73,ENE,59,0.0,1.0,96,0.00,,,0.00,HR-IXPWINDi_r2_v1.2.,2013-02-14 13:53:00,
2013-02-14 07:58:00,24.8,23.6,29.73,South,170,0.0,1.0,95,0.00,,,0.00,HR-IXPWINDi_r2_v1.2.,2013-02-14 13:58:00,
2013-02-14 08:03:00,24.8,23.6,29.73,South,170,0.0,1.0,95,0.00,,,0.00,HR-IXPWINDi_r2_v1.2.,2013-02-14 14:03:00,
2013-02-14 08:08:00,24.8,23.6,29.73,South,170,0.0,1.0,95,0.00,,,0.00,HR-IXPWINDi_r2_v1.2.,2013-02-14 14:08:00,
2013-02-14 08:13:00,24.9,23.7,29.73,SW,232,1.0,3.0,95,0.00,,,0.00,HR-IXPWINDi_r2_v1.2.,2013-02-14 14:13:00,
2013-02-14 08:18:00,25.0,23.8,29.73,WSW,245,1.0,3.0,95,0.00,,,0.00,HR-IXPWINDi_r2_v1.2.,2013-02-14 14:18:00,
2013-02-14 08:24:00,25.1,23.9,29.73,WSW,245,0.0,3.0,95,0.00,,,0.00,HR-IXPWINDi_r2_v1.2.,2013-02-14 14:24:00,
2013-02-14 08:29:00,25.2,24.0,29.74,NE,38,0.0,1.0,95,0.00,,,0.00,HR-IXPWINDi_r2_v1.2.,2013-02-14 14:29:00,
2013-02-14 08:34:00,25.3,24.1,29.73,NE,38,0.0,1.0,95,0.00,,,0.00,HR-IXPWINDi_r2_v1.2.,2013-02-14 14:34:00,
2013-02-14 08:39:00,25.5,24.3,29.74,NE,38,0.0,1.0,95,0.00,,,0.00,HR-IXPWINDi_r2_v1.2.,2013-02-14 14:39:00,
2013-02-14 08:44:00,25.6,24.1,29.74,SE,128,0.0,1.0,94,0.00,,,0.00,HR-IXPWINDi_r2_v1.2.,2013-02-14 14:44:00,
2013-02-14 08:50:00,25.8,24.3,29.74,West,270,0.0,2.0,94,0.00,,,0.00,HR-IXPWINDi_r2_v1.2.,2013-02-14 14:50:00,
2013-02-14 08:55:00,26.1,24.6,29.74,West,269,0.0,2.0,94,0.00,,,0.00,HR-IXPWINDi_r2_v1.2.,2013-02-14 14:55:00,
2013-02-14 09:00:00,26.5,25.3,29.74,West,262,1.0,2.0,95,0.00,,,0.00,HR-IXPWINDi_r2_v1.2.,2013-02-14 15:00:00,
2013-02-14 09:05:00,26.8,25.5,29.74,SW,225,0.0,2.0,95,0.00,,,0.00,HR-IXPWINDi_r2_v1.2.,2013-02-14 15:05:00,
2013-02-14 09:10:00,26.9,25.4,29.74,West,263,1.0,3.0,94,0.00,,,0.00,HR-IXPWINDi_r2_v1.2.,2013-02-14 15:10:00,
2013-02-14 09:15:00,26.9,25.1,29.74,WNW,289,0.0,3.0,93,0.00,,,0.00,HR-IXPWINDi_r2_v1.2.,2013-02-14 15:15:00,
2013-02-14 09:20:00,26.9,25.1,29.74,WSW,252,0.0,2.0,93,0.00,,,0.00,HR-IXPWINDi_r2_v1.2.,2013-02-14 15:20:00,
2013-02-14 09:26:00,27.0,25.0,29.74,ENE,76,0.0,4.0,92,0.00,,,0.00,HR-IXPWINDi_r2_v1.2.,2013-02-14 15:26:00,
2013-02-14 09:31:00,26.8,24.8,29.75,NNE,21,0.0,4.0,92,0.00,,,0.00,HR-IXPWINDi_r2_v1.2.,2013-02-14 15:31:00,
2013-02-14 09:36:00,26.8,24.8,29.75,NNE,21,0.0,2.0,92,0.00,,,0.00,HR-IXPWINDi_r2_v1.2.,2013-02-14 15:36:00,
2013-02-14 09:42:00,26.9,24.9,29.75,West,270,0.0,2.0,92,0.00,,,0.00,HR-IXPWINDi_r2_v1.2.,2013-02-14 15:42:00,
2013-02-14 09:47:00,27.0,25.0,29.75,WNW,284,0.0,2.0,92,0.00,,,0.00,HR-IXPWINDi_r2_v1.2.,2013-02-14 15:47:00,
2013-02-14 09:52:00,27.0,25.0,29.75,WNW,284,0.0,2.0,92,0.00,,,0.00,HR-IXPWINDi_r2_v1.2.,2013-02-14 15:52:00,
2013-02-14 09:57:00,27.0,25.0,29.75,WSW,244,0.0,1.0,92,0.00,,,0.00,HR-IXPWINDi_r2_v1.2.,2013-02-14 15:57:00,
2013-02-14 10:02:00,27.1,25.3,29.75,East,96,0.0,1.0,93,0.00,,,0.00,HR-IXPWINDi_r2_v1.2.,2013-02-14 16:02:00,
2013-02-14 10:08:00,27.1,25.1,29.75,SSW,211,0.0,2.0,92,0.00,,,0.00,HR-IXPWINDi_r2_v1.2.,2013-02-14 16:08:00,
2013-02-14 10:13:00,27.3,25.3,29.75,East,96,0.0,2.0,92,0.00,,,0.00,HR-IXPWINDi_r2_v1.2.,2013-02-14 16:13:00,
2013-02-14 10:18:00,27.4,25.4,29.75,East,97,0.0,5.0,92,0.00,,,0.00,HR-IXPWINDi_r2_v1.2.,2013-02-14 16:18:00,
2013-02-14 10:23:00,27.5,25.5,29.75,East,98,0.0,5.0,92,0.00,,,0.00,HR-IXPWINDi_r2_v1.2.,2013-02-14 16:23:00,
2013-02-14 10:28:00,27.6,25.6,29.75,WSW,240,0.0,6.0,92,0.00,,,0.00,HR-IXPWINDi_r2_v1.2.,2013-02-14 16:28:00,
2013-02-14 10:33:00,27.7,25.4,29.75,ESE,104,0.0,6.0,91,0.00,,,0.00,HR-IXPWINDi_r2_v1.2.,2013-02-14 16:33:00,
2013-02-14 10:39:00,27.9,25.6,29.75,SW,229,0.0,2.0,91,0.00,,,0.00,HR-IXPWINDi_r2_v1.2.,2013-02-14 16:39:00,
2013-02-14 10:44:00,28.1,25.5,29.75,ENE,78,0.0,4.0,90,0.00,,,0.00,HR-IXPWINDi_r2_v1.2.,2013-02-14 16:44:00,
2013-02-14 10:49:00,28.2,25.6,29.75,ENE,78,0.0,4.0,90,0.00,,,0.00,HR-IXPWINDi_r2_v1.2.,2013-02-14 16:49:00,
2013-02-14 10:54:00,28.0,25.4,29.76,WSW,250,0.0,2.0,90,0.00,,,0.00,HR-IXPWINDi_r2_v1.2.,2013-02-14 16:54:00,
2013-02-14 10:59:00,27.9,25.3,29.76,West,272,2.0,2.0,90,0.00,,,0.00,HR-IXPWINDi_r2_v1.2.,2013-02-14 16:59:00,
2013-02-14 11:04:00,27.9,25.3,29.76,West,277,0.0,2.0,90,0.00,,,0.00,HR-IXPWINDi_r2_v1.2.,2013-02-14 17:04:00,
2013-02-14 11:10:00,28.0,25.7,29.76,NW,311,1.0,4.0,91,0.00,,,0.00,HR-IXPWINDi_r2_v1.2.,2013-02-14 17:10:00,
2013-02-14 11:15:00,28.1,25.5,29.76,WNW,296,0.0,4.0,90,0.00,,,0.00,HR-IXPWINDi_r2_v1.2.,2013-02-14 17:15:00,
2013-02-14 11:20:00,28.2,25.6,29.76,WNW,287,2.0,2.0,90,0.00,,,0.00,HR-IXPWINDi_r2_v1.2.,2013-02-14 17:20:00,
2013-02-14 11:25:00,28.1,25.5,29.76,West,275,1.0,3.0,90,0.00,,,0.00,HR-IXPWINDi_r2_v1.2.,2013-02-14 17:25:00,
2013-02-14 11:30:00,28.0,25.2,29.77,NNW,348,1.0,3.0,89,0.00,,,0.00,HR-IXPWINDi_r2_v1.2.,2013-02-14 17:30:00,
2013-02-14 11:35:00,28.0,25.2,29.77,ESE,112,0.0,3.0,89,0.00,,,0.00,HR-IXPWINDi_r2_v1.2.,2013-02-14 17:35:00,
2013-02-14 11:41:00,28.2,25.4,29.77,ESE,112,0.0,2.0,89,0.00,,,0.00,HR-IXPWINDi_r2_v1.2.,2013-02-14 17:41:00,
2013-02-14 11:46:00,28.3,25.7,29.77,SSW,206,1.0,2.0,90,0.00,,,0.00,HR-IXPWINDi_r2_v1.2.,2013-02-14 17:46:00,
2013-02-14 11:51:00,28.4,25.6,29.77,ENE,76,0.0,2.0,89,0.00,,,0.00,HR-IXPWINDi_r2_v1.2.,2013-02-14 17:51:00,
2013-02-14 11:56:00,28.5,25.7,29.77,ESE,123,1.0,2.0,89,0.00,,,0.00,HR-IXPWINDi_r2_v1.2.,2013-02-14 17:56:00,
2013-02-14 12:01:00,28.5,25.4,29.77,WNW,300,0.0,3.0,88,0.00,,,0.00,HR-IXPWINDi_r2_v1.2.,2013-02-14 18:01:00,
2013-02-14 12:07:00,28.3,25.2,29.77,SSW,203,0.0,3.0,88,0.00,,,0.00,HR-IXPWINDi_r2_v1.2.,2013-02-14 18:07:00,
2013-02-14 12:12:00,28.1,25.0,29.77,WSW,242,1.0,2.0,88,0.00,,,0.00,HR-IXPWINDi_r2_v1.2.,2013-02-14 18:12:00,
2013-02-14 12:17:00,27.6,24.5,29.77,ENE,74,0.0,4.0,88,0.00,,,0.00,HR-IXPWINDi_r2_v1.2.,2013-02-14 18:17:00,
2013-02-14 12:22:00,27.4,24.6,29.77,WNW,295,0.0,4.0,89,0.00,,,0.00,HR-IXPWINDi_r2_v1.2.,2013-02-14 18:22:00,
2013-02-14 12:27:00,27.2,24.6,29.77,WSW,253,0.0,3.0,90,0.00,,,0.00,HR-IXPWINDi_r2_v1.2.,2013-02-14 18:27:00,
2013-02-14 12:32:00,27.0,24.5,29.78,North,360,0.0,3.0,90,0.00,,,0.00,HR-IXPWINDi_r2_v1.2.,2013-02-14 18:32:00,
2013-02-14 12:38:00,27.0,24.5,29.78,NNW,338,0.0,3.0,90,0.00,,,0.00,HR-IXPWINDi_r2_v1.2.,2013-02-14 18:38:00,
2013-02-14 12:43:00,27.2,24.6,29.78,North,360,0.0,2.0,90,0.00,,,0.00,HR-IXPWINDi_r2_v1.2.,2013-02-14 18:43:00,
2013-02-14 12:48:00,27.6,24.8,29.78,West,271,0.0,2.0,89,0.00,,,0.00,HR-IXPWINDi_r2_v1.2.,2013-02-14 18:48:00,
2013-02-14 12:53:00,27.6,24.5,29.78,NE,39,1.0,4.0,88,0.00,,,0.00,HR-IXPWINDi_r2_v1.2.,2013-02-14 18:53:00,
2013-02-14 12:59:00,27.4,24.0,29.79,NNW,327,2.0,4.0,87,0.00,,,0.00,HR-IXPWINDi_r2_v1.2.,2013-02-14 18:59:00,
2013-02-14 13:04:00,27.1,24.0,29.79,North,350,1.0,3.0,88,0.00,,,0.00,HR-IXPWINDi_r2_v1.2.,2013-02-14 19:04:00,
2013-02-14 13:09:00,26.9,23.8,29.79,ESE,119,0.0,4.0,88,0.00,,,0.00,HR-IXPWINDi_r2_v1.2.,2013-02-14 19:09:00,
2013-02-14 13:14:00,26.7,23.6,29.80,NNW,338,0.0,4.0,88,0.00,,,0.00,HR-IXPWINDi_r2_v1.2.,2013-02-14 19:14:00,
2013-02-14 13:20:00,26.5,23.4,29.80,West,280,0.0,4.0,88,0.00,,,0.00,HR-IXPWINDi_r2_v1.2.,2013-02-14 19:20:00,
2013-02-14 13:25:00,26.2,22.9,29.80,SSW,203,1.0,7.0,87,0.00,,,0.00,HR-IXPWINDi_r2_v1.2.,2013-02-14 19:25:00,
2013-02-14 13:30:00,25.9,22.6,29.80,North,355,0.0,7.0,87,0.00,,,0.00,HR-IXPWINDi_r2_v1.2.,2013-02-14 19:30:00,
2013-02-14 13:35:00,25.7,22.4,29.80,ESE,105,2.0,5.0,87,0.00,,,0.00,HR-IXPWINDi_r2_v1.2.,2013-02-14 19:35:00,
2013-02-14 13:41:00,25.5,22.2,29.81,West,272,0.0,5.0,87,0.00,,,0.00,HR-IXPWINDi_r2_v1.2.,2013-02-14 19:41:00,
2013-02-14 13:46:00,25.4,22.1,29.81,NW,323,1.0,5.0,87,0.00,,,0.00,HR-IXPWINDi_r2_v1.2.,2013-02-14 19:46:00,
2013-02-14 13:51:00,25.2,21.9,29.81,WNW,285,2.0,6.0,87,0.00,,,0.00,HR-IXPWINDi_r2_v1.2.,2013-02-14 19:51:00,
2013-02-14 13:56:00,25.0,21.7,29.82,NW,308,3.0,6.0,87,0.00,,,0.00,HR-IXPWINDi_r2_v1.2.,2013-02-14 19:56:00,
2013-02-14 14:02:00,24.8,21.2,29.82,SSE,157,0.0,8.0,86,0.00,,,0.00,HR-IXPWINDi_r2_v1.2.,2013-02-14 20:02:00,
2013-02-14 14:07:00,24.9,21.6,29.82,SW,232,0.0,8.0,87,0.00,,,0.00,HR-IXPWINDi_r2_v1.2.,2013-02-14 20:07:00,
2013-02-14 14:12:00,25.0,21.1,29.83,SW,227,0.0,4.0,85,0.00,,,0.00,HR-IXPWINDi_r2_v1.2.,2013-02-14 20:12:00,
2013-02-14 14:17:00,25.0,21.1,29.83,NNW,345,2.0,4.0,85,0.00,,,0.00,HR-IXPWINDi_r2_v1.2.,2013-02-14 20:17:00,
2013-02-14 14:22:00,24.8,20.7,29.83,SW,227,2.0,6.0,84,0.00,,,0.00,HR-IXPWINDi_r2_v1.2.,2013-02-14 20:22:00,
2013-02-14 14:27:00,24.8,20.9,29.83,NNW,331,0.0,6.0,85,0.00,,,0.00,HR-IXPWINDi_r2_v1.2.,2013-02-14 20:27:00,
2013-02-14 14:33:00,24.8,20.7,29.84,WNW,291,2.0,6.0,84,0.00,,,0.00,HR-IXPWINDi_r2_v1.2.,2013-02-14 20:33:00,
2013-02-14 14:38:00,24.8,20.7,29.84,North,5,0.0,4.0,84,0.00,,,0.00,HR-IXPWINDi_r2_v1.2.,2013-02-14 20:38:00,
2013-02-14 14:43:00,24.9,20.8,29.84,NE,42,1.0,4.0,84,0.00,,,0.00,HR-IXPWINDi_r2_v1.2.,2013-02-14 20:43:00,
2013-02-14 14:48:00,24.7,20.3,29.85,NW,321,1.0,6.0,83,0.00,,,0.00,HR-IXPWINDi_r2_v1.2.,2013-02-14 20:48:00,
2013-02-14 14:53:00,24.5,20.4,29.85,SSW,200,2.0,6.0,84,0.00,,,0.00,HR-IXPWINDi_r2_v1.2.,2013-02-14 20:53:00,
2013-02-14 14:58:00,24.3,20.2,29.85,NNE,18,0.0,3.0,84,0.00,,,0.00,HR-IXPWINDi_r2_v1.2.,2013-02-14 20:58:00,
2013-02-14 15:03:00,24.1,19.7,29.85,NW,319,1.0,5.0,83,0.00,,,0.00,HR-IXPWINDi_r2_v1.2.,2013-02-14 21:03:00,
2013-02-14 15:09:00,24.0,19.9,29.86,NE,48,1.0,5.0,84,0.00,,,0.00,HR-IXPWINDi_r2_v1.2.,2013-02-14 21:09:00,
2013-02-14 15:14:00,23.9,19.8,29.86,North,360,1.0,2.0,84,0.00,,,0.00,HR-IXPWINDi_r2_v1.2.,2013-02-14 21:14:00,
2013-02-14 15:19:00,23.8,19.4,29.86,ENE,73,0.0,2.0,83,0.00,,,0.00,HR-IXPWINDi_r2_v1.2.,2013-02-14 21:19:00,
2013-02-14 15:24:00,23.6,19.5,29.87,WNW,282,0.0,2.0,84,0.00,,,0.00,HR-IXPWINDi_r2_v1.2.,2013-02-14 21:24:00,
2013-02-14 15:29:00,23.4,19.6,29.87,WNW,282,1.0,2.0,85,0.00,,,0.00,HR-IXPWINDi_r2_v1.2.,2013-02-14 21:29:00,
2013-02-14 15:34:00,23.4,19.6,29.87,North,11,0.0,4.0,85,0.00,,,0.00,HR-IXPWINDi_r2_v1.2.,2013-02-14 21:34:00,
2013-02-14 15:40:00,23.3,19.5,29.88,NNE,12,0.0,4.0,85,0.00,,,0.00,HR-IXPWINDi_r2_v1.2.,2013-02-14 21:40:00,
2013-02-14 15:45:00,23.3,19.5,29.88,NNE,13,0.0,2.0,85,0.00,,,0.00,HR-IXPWINDi_r2_v1.2.,2013-02-14 21:45:00,
2013-02-14 15:50:00,23.2,19.4,29.88,North,10,0.0,2.0,85,0.00,,,0.00,HR-IXPWINDi_r2_v1.2.,2013-02-14 21:50:00,
2013-02-14 15:55:00,23.3,19.7,29.89,North,10,0.0,2.0,86,0.00,,,0.00,HR-IXPWINDi_r2_v1.2.,2013-02-14 21:55:00,
2013-02-14 16:00:00,23.4,19.6,29.88,NW,311,0.0,3.0,85,0.00,,,0.00,HR-IXPWINDi_r2_v1.2.,2013-02-14 22:00:00,
2013-02-14 16:05:00,23.2,19.1,29.89,North,5,0.0,3.0,84,0.00,,,0.00,HR-IXPWINDi_r2_v1.2.,2013-02-14 22:05:00,
2013-02-14 16:10:00,22.9,18.8,29.89,WSW,240,1.0,3.0,84,0.00,,,0.00,HR-IXPWINDi_r2_v1.2.,2013-02-14 22:10:00,
2013-02-14 16:15:00,22.6,18.5,29.90,WSW,240,0.0,3.0,84,0.00,,,0.00,HR-IXPWINDi_r2_v1.2.,2013-02-14 22:15:00,
2013-02-14 16:21:00,22.5,18.4,29.90,NW,315,0.0,3.0,84,0.00,,,0.00,HR-IXPWINDi_r2_v1.2.,2013-02-14 22:21:00,
2013-02-14 16:26:00,22.4,18.6,29.90,WNW,300,0.0,4.0,85,0.00,,,0.00,HR-IXPWINDi_r2_v1.2.,2013-02-14 22:26:00,
2013-02-14 16:31:00,22.2,18.4,29.91,ENE,70,0.0,4.0,85,0.00,,,0.00,HR-IXPWINDi_r2_v1.2.,2013-02-14 22:31:00,
2013-02-14 16:36:00,22.0,18.2,29.91,SW,235,0.0,4.0,85,0.00,,,0.00,HR-IXPWINDi_r2_v1.2.,2013-02-14 22:36:00,
2013-02-14 16:41:00,21.6,17.5,29.92,NW,319,3.0,6.0,84,0.00,,,0.00,HR-IXPWINDi_r2_v1.2.,2013-02-14 22:41:00,
2013-02-14 16:46:00,21.3,17.2,29.92,WNW,291,0.0,6.0,84,0.00,,,0.00,HR-IXPWINDi_r2_v1.2.,2013-02-14 22:46:00,
2013-02-14 16:51:00,21.1,17.0,29.92,SSW,205,0.0,3.0,84,0.00,,,0.00,HR-IXPWINDi_r2_v1.2.,2013-02-14 22:51:00,
2013-02-14 16:56:00,20.9,16.9,29.93,WNW,283,0.0,2.0,84,0.00,,,0.00,HR-IXPWINDi_r2_v1.2.,2013-02-14 22:56:00,
2013-02-14 17:01:00,20.7,16.7,29.93,WNW,302,1.0,5.0,84,0.00,,,0.00,HR-IXPWINDi_r2_v1.2.,2013-02-14 23:01:00,
2013-02-14 17:07:00,20.4,16.4,29.94,WNW,302,0.0,5.0,84,0.00,,,0.00,HR-IXPWINDi_r2_v1.2.,2013-02-14 23:07:00,
2013-02-14 17:12:00,20.2,16.4,29.94,ESE,106,0.0,4.0,85,0.00,,,0.00,HR-IXPWINDi_r2_v1.2.,2013-02-14 23:12:00,
2013-02-14 17:17:00,20.0,16.2,29.94,WNW,287,1.0,3.0,85,0.00,,,0.00,HR-IXPWINDi_r2_v1.2.,2013-02-14 23:17:00,
2013-02-14 17:22:00,19.8,16.0,29.95,NW,304,0.0,3.0,85,0.00,,,0.00,HR-IXPWINDi_r2_v1.2.,2013-02-14 23:22:00,
2013-02-14 17:27:00,19.6,15.9,29.95,South,191,0.0,4.0,85,0.00,,,0.00,HR-IXPWINDi_r2_v1.2.,2013-02-14 23:27:00,
2013-02-14 17:32:00,19.5,15.8,29.95,NNE,18,6.0,7.0,85,0.00,,,0.00,HR-IXPWINDi_r2_v1.2.,2013-02-14 23:32:00,
2013-02-14 17:38:00,19.4,15.9,29.95,NNW,338,0.0,7.0,86,0.00,,,0.00,HR-IXPWINDi_r2_v1.2.,2013-02-14 23:38:00,
2013-02-14 17:43:00,19.2,15.7,29.96,ESE,123,0.0,7.0,86,0.00,,,0.00,HR-IXPWINDi_r2_v1.2.,2013-02-14 23:43:00,
2013-02-14 17:48:00,19.0,15.8,29.96,SW,228,1.0,4.0,87,0.00,,,0.00,HR-IXPWINDi_r2_v1.2.,2013-02-14 23:48:00,
2013-02-14 17:54:00,18.9,15.7,29.97,NW,323,1.0,4.0,87,0.00,,,0.00,HR-IXPWINDi_r2_v1.2.,2013-02-14 23:54:00,
2013-02-14 17:59:00,18.6,15.4,29.97,NW,315,0.0,4.0,87,0.00,,,0.00,HR-IXPWINDi_r2_v1.2.,2013-02-14 23:59:00,
2013-02-14 18:04:00,18.4,14.9,29.97,NNE,20,1.0,9.0,86,0.00,,,0.00,HR-IXPWINDi_r2_v1.2.,2013-02-15 00:04:00,
2013-02-14 18:09:00,18.3,14.8,29.98,WNW,294,0.0,9.0,86,0.00,,,0.00,HR-IXPWINDi_r2_v1.2.,2013-02-15 00:09:00,
2013-02-14 18:14:00,18.1,14.7,29.98,NNW,327,0.0,3.0,86,0.00,,,0.00,HR-IXPWINDi_r2_v1.2.,2013-02-15 00:14:00,
2013-02-14 18:20:00,18.0,14.6,29.99,North,360,0.0,3.0,86,0.00,,,0.00,HR-IXPWINDi_r2_v1.2.,2013-02-15 00:20:00,
2013-02-14 18:25:00,17.9,14.7,29.99,NNE,13,1.0,3.0,87,0.00,,,0.00,HR-IXPWINDi_r2_v1.2.,2013-02-15 00:25:00,
2013-02-14 18:30:00,17.8,14.6,29.99,NNW,331,0.0,3.0,87,0.00,,,0.00,HR-IXPWINDi_r2_v1.2.,2013-02-15 00:30:00,
2013-02-14 18:36:00,17.7,14.5,29.99,SW,216,0.0,2.0,87,0.00,,,0.00,HR-IXPWINDi_r2_v1.2.,2013-02-15 00:36:00,
2013-02-14 18:41:00,17.6,14.4,29.99,NNW,344,1.0,3.0,87,0.00,,,0.00,HR-IXPWINDi_r2_v1.2.,2013-02-15 00:41:00,
2013-02-14 18:46:00,17.5,14.3,29.99,WNW,296,0.0,4.0,87,0.00,,,0.00,HR-IXPWINDi_r2_v1.2.,2013-02-15 00:46:00,
2013-02-14 18:51:00,17.4,14.2,29.99,WSW,238,0.0,4.0,87,0.00,,,0.00,HR-IXPWINDi_r2_v1.2.,2013-02-15 00:51:00,
2013-02-14 18:56:00,17.3,14.1,30.00,North,355,0.0,2.0,87,0.00,,,0.00,HR-IXPWINDi_r2_v1.2.,2013-02-15 00:56:00,
2013-02-14 19:01:00,17.3,14.1,30.00,SSW,213,1.0,2.0,87,0.00,,,0.00,HR-IXPWINDi_r2_v1.2.,2013-02-15 01:01:00,
2013-02-14 19:07:00,17.2,14.3,30.00,South,179,2.0,3.0,88,0.00,,,0.00,HR-IXPWINDi_r2_v1.2.,2013-02-15 01:07:00,
2013-02-14 19:12:00,17.2,14.0,30.00,NNE,15,1.0,4.0,87,0.00,,,0.00,HR-IXPWINDi_r2_v1.2.,2013-02-15 01:12:00,
2013-02-14 19:17:00,17.1,13.9,30.00,SE,134,1.0,4.0,87,0.00,,,0.00,HR-IXPWINDi_r2_v1.2.,2013-02-15 01:17:00,
2013-02-14 19:22:00,17.0,14.1,30.01,South,169,0.0,2.0,88,0.00,,,0.00,HR-IXPWINDi_r2_v1.2.,2013-02-15 01:22:00,
2013-02-14 19:27:00,17.1,13.9,30.01,SE,126,1.0,2.0,87,0.00,,,0.00,HR-IXPWINDi_r2_v1.2.,2013-02-15 01:27:00,
2013-02-14 19:33:00,16.9,13.5,30.01,NNE,17,1.0,4.0,86,0.00,,,0.00,HR-IXPWINDi_r2_v1.2.,2013-02-15 01:33:00,
2013-02-14 19:38:00,16.8,13.1,30.01,SW,222,2.0,4.0,85,0.00,,,0.00,HR-IXPWINDi_r2_v1.2.,2013-02-15 01:38:00,
2013-02-14 19:43:00,16.7,13.0,30.01,WSW,251,0.0,4.0,85,0.00,,,0.00,HR-IXPWINDi_r2_v1.2.,2013-02-15 01:43:00,
2013-02-14 19:48:00,16.5,12.3,30.02,NW,308,2.0,4.0,83,0.00,,,0.00,HR-IXPWINDi_r2_v1.2.,2013-02-15 01:48:00,
2013-02-14 19:53:00,16.4,12.2,30.01,SSW,212,1.0,5.0,83,0.00,,,0.00,HR-IXPWINDi_r2_v1.2.,2013-02-15 01:53:00,
2013-02-14 19:58:00,16.3,12.1,30.02,East,84,0.0,5.0,83,0.00,,,0.00,HR-IXPWINDi_r2_v1.2.,2013-02-15 01:58:00,
2013-02-14 20:04:00,16.2,12.0,30.02,WSW,255,0.0,4.0,83,0.00,,,0.00,HR-IXPWINDi_r2_v1.2.,2013-02-15 02:04:00,
2013-02-14 20:09:00,16.1,11.9,30.02,NNE,19,0.0,4.0,83,0.00,,,0.00,HR-IXPWINDi_r2_v1.2.,2013-02-15 02:09:00,
2013-02-14 20:14:00,16.1,12.2,30.02,NNW,330,1.0,4.0,84,0.00,,,0.00,HR-IXPWINDi_r2_v1.2.,2013-02-15 02:14:00,
2013-02-14 20:19:00,16.0,11.8,30.02,North,5,1.0,3.0,83,0.00,,,0.00,HR-IXPWINDi_r2_v1.2.,2013-02-15 02:19:00,
2013-02-14 20:24:00,16.0,11.8,30.03,WSW,247,0.0,4.0,83,0.00,,,0.00,HR-IXPWINDi_r2_v1.2.,2013-02-15 02:24:00,
2013-02-14 20:29:00,15.9,12.0,30.03,SW,225,0.0,4.0,84,0.00,,,0.00,HR-IXPWINDi_r2_v1.2.,2013-02-15 02:29:00,
2013-02-14 20:35:00,15.9,12.0,30.03,NE,47,1.0,4.0,84,0.00,,,0.00,HR-IXPWINDi_r2_v1.2.,2013-02-15 02:35:00,
2013-02-14 20:40:00,15.9,12.2,30.03,NNE,21,0.0,4.0,85,0.00,,,0.00,HR-IXPWINDi_r2_v1.2.,2013-02-15 02:40:00,
2013-02-14 20:45:00,15.8,12.1,30.03,NNE,27,0.0,4.0,85,0.00,,,0.00,HR-IXPWINDi_r2_v1.2.,2013-02-15 02:45:00,
2013-02-14 20:50:00,15.7,12.0,30.03,NNE,27,0.0,2.0,85,0.00,,,0.00,HR-IXPWINDi_r2_v1.2.,2013-02-15 02:50:00,
2013-02-14 20:55:00,15.7,12.6,30.03,NNW,340,0.0,2.0,87,0.00,,,0.00,HR-IXPWINDi_r2_v1.2.,2013-02-15 02:55:00,
2013-02-14 21:00:00,15.7,12.0,30.03,NNW,342,0.0,2.0,85,0.00,,,0.00,HR-IXPWINDi_r2_v1.2.,2013-02-15 03:00:00,
2013-02-14 21:06:00,15.5,12.1,30.03,NNW,342,0.0,1.0,86,0.00,,,0.00,HR-IXPWINDi_r2_v1.2.,2013-02-15 03:06:00,
2013-02-14 21:11:00,15.3,11.6,30.03,SW,217,2.0,2.0,85,0.00,,,0.00,HR-IXPWINDi_r2_v1.2.,2013-02-15 03:11:00,
2013-02-14 21:16:00,15.2,11.8,30.04,SW,217,0.0,2.0,86,0.00,,,0.00,HR-IXPWINDi_r2_v1.2.,2013-02-15 03:16:00,
2013-02-14 21:21:00,15.1,11.7,30.04,SW,217,0.0,2.0,86,0.00,,,0.00,HR-IXPWINDi_r2_v1.2.,2013-02-15 03:21:00,
2013-02-14 21:26:00,14.9,11.5,30.04,SW,217,0.0,1.0,86,0.00,,,0.00,HR-IXPWINDi_r2_v1.2.,2013-02-15 03:26:00,
2013-02-14 21:31:00,14.7,11.3,30.04,SW,224,0.0,1.0,86,0.00,,,0.00,HR-IXPWINDi_r2_v1.2.,2013-02-15 03:31:00,
2013-02-14 21:36:00,14.5,10.9,30.04,SW,224,0.0,1.0,85,0.00,,,0.00,HR-IXPWINDi_r2_v1.2.,2013-02-15 03:36:00,
2013-02-14 21:41:00,14.3,10.9,30.04,SSW,201,0.0,1.0,86,0.00,,,0.00,HR-IXPWINDi_r2_v1.2.,2013-02-15 03:41:00,
2013-02-14 21:46:00,14.2,10.8,30.04,SSW,201,0.0,1.0,86,0.00,,,0.00,HR-IXPWINDi_r2_v1.2.,2013-02-15 03:46:00,
2013-02-14 21:51:00,14.1,10.7,30.04,SSW,200,0.0,1.0,86,0.00,,,0.00,HR-IXPWINDi_r2_v1.2.,2013-02-15 03:51:00,
2013-02-14 21:57:00,13.9,10.5,30.04,SSW,201,0.0,1.0,86,0.00,,,0.00,HR-IXPWINDi_r2_v1.2.,2013-02-15 03:57:00,
2013-02-14 22:02:00,13.9,10.8,30.03,SSW,201,0.0,1.0,87,0.00,,,0.00,HR-IXPWINDi_r2_v1.2.,2013-02-15 04:02:00,
2013-02-14 22:07:00,13.9,10.8,30.03,SSW,201,0.0,1.0,87,0.00,,,0.00,HR-IXPWINDi_r2_v1.2.,2013-02-15 04:07:00,
2013-02-14 22:12:00,13.8,10.7,30.03,SSW,200,0.0,1.0,87,0.00,,,0.00,HR-IXPWINDi_r2_v1.2.,2013-02-15 04:12:00,
2013-02-14 22:18:00,13.7,10.9,30.03,South,191,0.0,1.0,88,0.00,,,0.00,HR-IXPWINDi_r2_v1.2.,2013-02-15 04:18:00,
2013-02-14 22:23:00,13.7,10.9,30.04,South,191,0.0,1.0,88,0.00,,,0.00,HR-IXPWINDi_r2_v1.2.,2013-02-15 04:23:00,
2013-02-14 22:28:00,13.7,10.9,30.04,South,191,1.0,2.0,88,0.00,,,0.00,HR-IXPWINDi_r2_v1.2.,2013-02-15 04:28:00,
2013-02-14 22:33:00,13.7,10.9,30.04,South,191,0.0,2.0,88,0.00,,,0.00,HR-IXPWINDi_r2_v1.2.,2013-02-15 04:33:00,
2013-02-14 22:38:00,13.7,10.9,30.04,SW,223,0.0,2.0,88,0.00,,,0.00,HR-IXPWINDi_r2_v1.2.,2013-02-15 04:38:00,
2013-02-14 22:44:00,13.6,10.8,30.05,SW,218,0.0,2.0,88,0.00,,,0.00,HR-IXPWINDi_r2_v1.2.,2013-02-15 04:44:00,
2013-02-14 22:49:00,13.6,10.8,30.05,West,275,0.0,1.0,88,0.00,,,0.00,HR-IXPWINDi_r2_v1.2.,2013-02-15 04:49:00,
2013-02-14 22:54:00,13.5,10.7,30.05,West,275,1.0,1.0,88,0.00,,,0.00,HR-IXPWINDi_r2_v1.2.,2013-02-15 04:54:00,
2013-02-14 22:59:00,13.5,10.7,30.05,West,275,0.0,1.0,88,0.00,,,0.00,HR-IXPWINDi_r2_v1.2.,2013-02-15 04:59:00,
2013-02-14 23:00:00,13.5,10.7,30.05,West,275,0.0,1.0,88,0.00,,,0.00,HR-IXPWINDi_r2_v1.2.,2013-02-15 05:00:00,
2013-02-14 23:05:00,13.4,10.6,30.05,West,275,0.0,2.0,88,0.00,,,0.00,HR-IXPWINDi_r2_v1.2.,2013-02-15 05:05:00,
2013-02-14 23:10:00,13.4,10.6,30.05,West,275,0.0,2.0,88,0.00,,,0.00,HR-IXPWINDi_r2_v1.2.,2013-02-15 05:10:00,
2013-02-14 23:15:00,13.2,10.1,30.05,West,275,0.0,2.0,87,0.00,,,0.00,HR-IXPWINDi_r2_v1.2.,2013-02-15 05:15:00,
2013-02-14 23:20:00,13.1,10.0,30.05,West,275,0.0,1.0,87,0.00,,,0.00,HR-IXPWINDi_r2_v1.2.,2013-02-15 05:20:00,
2013-02-14 23:25:00,13.0,9.9,30.06,West,275,0.0,1.0,87,0.00,,,0.00,HR-IXPWINDi_r2_v1.2.,2013-02-15 05:25:00,
2013-02-14 23:30:00,12.8,9.7,30.06,West,275,0.0,2.0,87,0.00,,,0.00,HR-IXPWINDi_r2_v1.2.,2013-02-15 05:30:00,
2013-02-14 23:35:00,12.7,9.6,30.06,West,275,0.0,2.0,87,0.00,,,0.00,HR-IXPWINDi_r2_v1.2.,2013-02-15 05:35:00,
2013-02-14 23:41:00,12.4,9.3,30.06,ESE,105,0.0,2.0,87,0.00,,,0.00,HR-IXPWINDi_r2_v1.2.,2013-02-15 05:41:00,
2013-02-14 23:46:00,12.2,9.1,30.06,ESE,105,0.0,2.0,87,0.00,,,0.00,HR-IXPWINDi_r2_v1.2.,2013-02-15 05:46:00,
2013-02-14 23:51:00,12.0,8.9,30.06,ESE,105,0.0,1.0,87,0.00,,,0.00,HR-IXPWINDi_r2_v1.2.,2013-02-15 05:51:00,
2013-02-14 23:56:00,11.8,8.7,30.07,ESE,105,0.0,1.0,87,0.00,,,0.00,HR-IXPWINDi_r2_v1.2.,2013-02-15 05:56:00,